createdAt,value
2023-01-04T00:02:20.763Z,101722.94
2023-01-04T00:05:05.281Z,101712.44
2023-01-04T00:07:41.011Z,101707.00
2023-01-04T00:10:25.962Z,101699.22
2023-01-04T00:16:14.803Z,101695.63
2023-01-04T00:18:48.025Z,101678.09
2023-01-04T00:27:06.112Z,101678.00
2023-01-04T00:30:15.032Z,101666.50
2023-01-04T00:32:54.060Z,101663.13
2023-01-04T00:35:44.839Z,101660.47
2023-01-04T00:38:19.283Z,101650.63
2023-01-04T00:40:58.701Z,101650.69
2023-01-04T00:43:43.148Z,101644.66
2023-01-04T00:46:30.205Z,101630.53
2023-01-04T00:49:02.847Z,101626.97
2023-01-04T00:51:33.795Z,101625.22
2023-01-04T00:54:15.607Z,101619.94
2023-01-04T00:57:05.401Z,101610.31
2023-01-04T00:59:38.899Z,101598.84
2023-01-04T01:02:11.070Z,101584.81
2023-01-04T01:04:40.868Z,101593.53
2023-01-04T01:07:13.556Z,101591.84
2023-01-04T01:09:44.897Z,101586.50
2023-01-04T01:12:19.113Z,101577.81
2023-01-04T01:14:47.900Z,101582.16
2023-01-04T01:17:32.173Z,101589.19
2023-01-04T01:20:20.007Z,101578.66
2023-01-04T01:23:05.813Z,101576.09
2023-01-04T01:25:44.300Z,101568.09
2023-01-04T01:28:23.735Z,101572.53
2023-01-04T01:30:56.132Z,101569.00
2023-01-04T01:33:40.698Z,101561.00
2023-01-04T01:36:13.654Z,101563.69
2023-01-04T01:38:45.777Z,101554.84
2023-01-04T01:41:31.633Z,101540.88
2023-01-04T01:44:10.620Z,101540.03
2023-01-04T01:46:50.637Z,101540.03
2023-01-04T01:49:47.034Z,101537.41
2023-01-04T01:52:22.764Z,101528.66
2023-01-04T01:55:07.971Z,101513.66
2023-01-04T01:57:40.935Z,101509.31
2023-01-04T02:00:29.127Z,101496.94
2023-01-04T02:03:26.450Z,101484.72
2023-01-04T02:06:14.101Z,101482.94
2023-01-04T02:09:00.118Z,101471.53
2023-01-04T02:11:33.869Z,101463.66
2023-01-04T02:14:32.578Z,101467.16
2023-01-04T02:17:20.006Z,101456.56
2023-01-04T02:20:20.457Z,101443.44
2023-01-04T02:26:55.768Z,101424.97
2023-01-04T02:30:13.325Z,101409.16
2023-01-04T02:33:00.953Z,101399.47
2023-01-04T02:35:49.409Z,101398.59
2023-01-04T02:38:33.686Z,101390.72
2023-01-04T02:41:20.203Z,101381.91
2023-01-04T02:44:18.564Z,101370.50
2023-01-04T02:46:53.341Z,101373.09
2023-01-04T02:49:46.279Z,101366.97
2023-01-04T02:52:18.330Z,101374.00
2023-01-04T02:54:55.530Z,101366.94
2023-01-04T02:57:42.342Z,101359.91
2023-01-04T03:00:30.033Z,101349.38
2023-01-04T03:03:36.272Z,101344.97
2023-01-04T03:06:20.001Z,101340.56
2023-01-04T03:09:00.811Z,101330.03
2023-01-04T03:11:53.037Z,101326.53
2023-01-04T03:14:32.555Z,101307.16
2023-01-04T03:17:03.324Z,101298.34
2023-01-04T03:19:55.241Z,101290.44
2023-01-04T03:22:56.312Z,101271.03
2023-01-04T03:25:46.752Z,101265.78
2023-01-04T03:28:35.729Z,101261.38
2023-01-04T03:31:29.566Z,101263.97
2023-01-04T03:34:16.059Z,101254.25
2023-01-04T03:36:54.686Z,101245.47
2023-01-04T03:39:58.197Z,101236.59
2023-01-04T03:42:50.169Z,101240.13
2023-01-04T03:45:41.786Z,101198.75
2023-01-04T03:48:30.646Z,101212.03
2023-01-04T03:51:06.620Z,101211.13
2023-01-04T03:53:39.400Z,101204.13
2023-01-04T03:56:12.042Z,101192.63
2023-01-04T03:58:40.347Z,101189.03
2023-01-04T04:01:09.021Z,101185.53
2023-01-04T04:03:54.745Z,101182.13
2023-01-04T04:06:40.538Z,101182.09
2023-01-04T04:09:08.550Z,101175.00
2023-01-04T04:11:37.902Z,101160.94
2023-01-04T04:14:05.946Z,101165.38
2023-01-04T04:16:34.299Z,101156.44
2023-01-04T04:19:08.239Z,101150.28
2023-01-04T04:21:37.887Z,101134.59
2023-01-04T04:24:06.964Z,101143.31
2023-01-04T04:26:35.182Z,101151.28
2023-01-04T04:29:05.075Z,101142.47
2023-01-04T04:31:35.739Z,101145.94
2023-01-04T04:34:06.505Z,101138.06
2023-01-04T04:36:35.870Z,101120.56
2023-01-04T04:39:05.658Z,101136.34
2023-01-04T04:41:39.503Z,101113.53
2023-01-04T04:44:12.661Z,101125.78
2023-01-04T04:46:41.067Z,101110.00
2023-01-04T04:49:10.469Z,101097.53
2023-01-04T04:51:40.236Z,101089.72
2023-01-04T04:54:09.651Z,101091.41
2023-01-04T04:56:39.103Z,101078.19
2023-01-04T04:59:08.984Z,101088.69
2023-01-04T05:01:37.288Z,101079.06
2023-01-04T05:04:05.868Z,101068.41
2023-01-04T05:06:34.383Z,101072.81
2023-01-04T05:09:03.144Z,101055.97
2023-01-04T05:11:48.846Z,101055.91
2023-01-04T05:14:18.886Z,101053.41
2023-01-04T05:16:47.027Z,101034.03
2023-01-04T05:19:15.057Z,101044.53
2023-01-04T05:21:42.869Z,101051.66
2023-01-04T05:24:13.140Z,101034.94
2023-01-04T05:26:42.070Z,101017.28
2023-01-04T05:29:30.529Z,101014.53
2023-01-04T05:32:04.459Z,101005.72
2023-01-04T05:34:34.660Z,100985.53
2023-01-04T05:37:04.390Z,100995.19
2023-01-04T05:39:34.787Z,100991.72
2023-01-04T05:42:23.605Z,100981.28
2023-01-04T05:44:57.915Z,100973.34
2023-01-04T05:47:40.197Z,100957.47
2023-01-04T05:50:18.906Z,100962.81
2023-01-04T05:52:49.523Z,100956.56
2023-01-04T05:55:27.085Z,100955.66
2023-01-04T05:57:58.082Z,100946.94
2023-01-04T06:00:27.007Z,100946.88
2023-01-04T06:02:57.995Z,100947.75
2023-01-04T06:05:30.628Z,100933.59
2023-01-04T06:08:03.623Z,100937.06
2023-01-04T06:10:51.018Z,100927.31
2023-01-04T06:13:35.527Z,100924.69
2023-01-04T06:20:14.758Z,100916.75
2023-01-04T06:23:02.289Z,100908.81
2023-01-04T06:31:47.024Z,100895.34
2023-01-04T06:34:34.346Z,100889.19
2023-01-04T06:47:02.517Z,100860.22
2023-01-04T06:49:32.233Z,100866.44
2023-01-04T06:52:02.291Z,100857.66
2023-01-04T06:54:33.170Z,100846.19
2023-01-04T06:57:02.411Z,100855.97
2023-01-04T06:59:33.830Z,100860.22
2023-01-04T07:02:07.124Z,100851.47
2023-01-04T07:04:35.441Z,100848.00
2023-01-04T07:07:06.184Z,100838.28
2023-01-04T07:09:34.250Z,100857.75
2023-01-04T07:12:02.467Z,100836.56
2023-01-04T07:14:32.020Z,100838.19
2023-01-04T07:17:04.980Z,100844.50
2023-01-04T07:19:35.355Z,100851.44
2023-01-04T07:22:04.317Z,100856.84
2023-01-04T07:24:36.590Z,100855.03
2023-01-04T07:27:05.712Z,100857.66
2023-01-04T07:29:35.269Z,100851.28
2023-01-04T07:32:10.226Z,100848.72
2023-01-04T07:34:44.936Z,100842.41
2023-01-04T07:37:16.235Z,100844.84
2023-01-04T07:39:45.428Z,100840.56
2023-01-04T07:42:22.778Z,100836.19
2023-01-04T07:45:15.659Z,100824.53
2023-01-04T07:47:54.601Z,100829.75
2023-01-04T07:50:25.138Z,100829.88
2023-01-04T07:52:55.716Z,100813.06
2023-01-04T07:55:35.808Z,100823.66
2023-01-04T08:01:25.314Z,100832.38
2023-01-04T08:03:55.739Z,100818.25
2023-01-04T08:06:42.611Z,100832.28
2023-01-04T08:09:26.870Z,100841.06
2023-01-04T08:11:59.189Z,100841.97
2023-01-04T08:14:31.205Z,100842.69
2023-01-04T08:16:59.931Z,100840.16
2023-01-04T08:19:29.067Z,100852.50
2023-01-04T08:22:04.658Z,100863.06
2023-01-04T08:24:34.396Z,100855.97
2023-01-04T08:27:10.247Z,100859.47
2023-01-04T08:32:59.395Z,100846.09
2023-01-04T08:35:28.839Z,100851.56
2023-01-04T08:38:47.237Z,100839.16
2023-01-04T08:41:16.876Z,100838.13
2023-01-04T08:47:18.885Z,100826.88
2023-01-04T08:50:09.976Z,100819.59
2023-01-04T08:52:57.914Z,100815.34
2023-01-04T08:55:47.151Z,100824.13
2023-01-04T09:02:04.841Z,100824.31
2023-01-04T09:04:47.505Z,100828.00
2023-01-04T09:07:19.103Z,100833.28
2023-01-04T09:31:42.417Z,100800.19
2023-01-04T09:37:58.428Z,100789.56
2023-01-04T09:40:45.229Z,100782.25
2023-01-04T09:43:39.347Z,100782.16
2023-01-04T09:46:24.835Z,100778.53
2023-01-04T09:49:10.756Z,100789.19
2023-01-04T09:54:49.103Z,100779.34
2023-01-04T09:57:43.043Z,100775.81
2023-01-04T10:03:39.877Z,100760.72
2023-01-04T11:36:52.431Z,100657.03
2023-01-04T11:51:38.897Z,100646.28
2023-01-04T15:00:20.252Z,100444.06
2023-01-04T15:43:36.499Z,100444.63
2023-01-04T16:02:39.344Z,100446.22
2023-01-04T16:05:20.582Z,100449.59
2023-01-04T16:08:11.454Z,100437.44
2023-01-04T16:10:44.426Z,100440.22
2023-01-04T16:13:19.825Z,100447.84
2023-01-04T16:15:55.864Z,100437.06
2023-01-04T16:18:33.718Z,100440.69
2023-01-04T16:21:07.830Z,100429.25
2023-01-04T16:23:50.111Z,100426.44
2023-01-04T16:29:42.513Z,100417.75
2023-01-04T16:32:54.470Z,100424.69
2023-01-04T16:35:37.403Z,100427.25
2023-01-04T16:38:37.053Z,100408.91
2023-01-04T16:41:19.590Z,100415.63
2023-01-04T16:47:03.330Z,100399.47
2023-01-04T17:20:37.891Z,100373.38
2023-01-04T18:16:24.728Z,100379.59
2023-01-04T18:22:01.515Z,100363.00
2023-01-04T18:40:30.261Z,100385.50
2023-01-04T18:43:53.530Z,100377.44
2023-01-04T18:55:46.996Z,100355.22
2023-01-04T19:11:59.965Z,100354.00
2023-01-04T22:30:10.319Z,100430.78
